createdAt,value
2023-05-14T00:02:21.453Z,10.67
2023-05-14T00:04:50.173Z,10.63
2023-05-14T00:07:18.257Z,10.62
2023-05-14T00:09:46.331Z,10.65
2023-05-14T00:12:14.430Z,10.69
2023-05-14T00:14:42.558Z,10.67
2023-05-14T00:17:12.017Z,10.66
2023-05-14T00:19:42.037Z,10.67
2023-05-14T00:22:10.318Z,10.66
2023-05-14T00:24:38.847Z,10.63
2023-05-14T00:27:07.784Z,10.71
2023-05-14T00:29:35.906Z,10.81
2023-05-14T00:32:04.814Z,10.71
2023-05-14T00:34:34.331Z,10.62
2023-05-14T00:37:02.493Z,10.62
2023-05-14T00:39:30.546Z,10.60
2023-05-14T00:41:58.675Z,10.62
2023-05-14T00:44:26.775Z,10.57
2023-05-14T00:46:55.474Z,10.56
2023-05-14T00:49:24.352Z,10.53
2023-05-14T00:51:54.470Z,10.52
2023-05-14T00:54:22.947Z,10.50
2023-05-14T00:56:51.934Z,10.51
2023-05-14T00:59:20.064Z,10.48
2023-05-14T01:01:48.241Z,10.48
2023-05-14T01:04:16.952Z,10.47
2023-05-14T01:06:59.644Z,10.40
2023-05-14T01:09:33.938Z,10.36
2023-05-14T01:12:07.502Z,10.33
2023-05-14T01:14:41.920Z,10.30
2023-05-14T01:17:13.421Z,10.32
2023-05-14T01:19:44.640Z,10.38
2023-05-14T01:22:14.607Z,10.35
2023-05-14T01:24:42.806Z,10.33
2023-05-14T01:27:18.452Z,10.27
2023-05-14T01:30:04.351Z,10.32
2023-05-14T01:32:34.376Z,10.27
2023-05-14T01:35:02.926Z,10.26
2023-05-14T01:37:33.813Z,10.22
2023-05-14T01:40:02.403Z,10.14
2023-05-14T01:42:31.301Z,10.11
2023-05-14T01:44:59.725Z,10.13
2023-05-14T01:47:28.500Z,10.09
2023-05-14T01:49:56.790Z,10.10
2023-05-14T01:52:25.168Z,10.12
2023-05-14T01:54:54.716Z,10.14
2023-05-14T01:57:22.924Z,10.17
2023-05-14T01:59:51.049Z,10.11
2023-05-14T02:02:19.221Z,10.07
2023-05-14T02:04:47.352Z,10.06
2023-05-14T02:07:15.577Z,9.98
2023-05-14T02:09:43.807Z,9.92
2023-05-14T02:12:13.347Z,9.91
2023-05-14T02:14:41.434Z,9.92
2023-05-14T02:17:09.572Z,9.89
2023-05-14T02:19:37.619Z,9.87
2023-05-14T02:22:05.943Z,9.87
2023-05-14T02:24:34.228Z,9.88
2023-05-14T02:27:02.384Z,9.89
2023-05-14T02:29:31.955Z,9.87
2023-05-14T02:31:59.998Z,9.90
2023-05-14T02:34:28.080Z,9.89
2023-05-14T02:36:56.298Z,9.90
2023-05-14T02:39:24.336Z,9.90
2023-05-14T02:41:52.425Z,9.94
2023-05-14T02:44:20.566Z,9.91
2023-05-14T02:46:50.080Z,9.89
2023-05-14T02:49:18.233Z,9.91
2023-05-14T02:51:46.293Z,9.90
2023-05-14T02:54:16.550Z,9.92
2023-05-14T02:56:44.662Z,9.92
2023-05-14T02:59:12.716Z,9.88
2023-05-14T03:01:41.226Z,9.87
2023-05-14T03:04:11.155Z,9.90
2023-05-14T03:06:39.127Z,9.91
2023-05-14T03:09:07.656Z,9.86
2023-05-14T03:11:36.058Z,9.89
2023-05-14T03:14:04.131Z,9.86
2023-05-14T03:16:32.276Z,9.93
2023-05-14T03:19:00.395Z,9.94
2023-05-14T03:21:30.080Z,9.92
2023-05-14T03:23:58.246Z,9.97
2023-05-14T03:26:26.352Z,9.91
2023-05-14T03:28:55.758Z,9.90
2023-05-14T03:31:24.228Z,9.99
2023-05-14T03:33:52.464Z,10.01
2023-05-14T03:36:20.598Z,10.04
2023-05-14T03:38:50.208Z,10.03
2023-05-14T03:41:20.098Z,10.02
2023-05-14T03:43:48.250Z,10.00
2023-05-14T03:46:16.387Z,10.04
2023-05-14T03:48:44.703Z,10.08
2023-05-14T03:51:12.798Z,10.10
2023-05-14T03:53:41.469Z,10.08
2023-05-14T03:56:10.965Z,10.10
2023-05-14T03:58:39.070Z,10.15
2023-05-14T04:01:07.207Z,10.18
2023-05-14T04:03:35.513Z,10.18
2023-05-14T04:06:03.778Z,10.23
2023-05-14T04:08:31.897Z,10.27
2023-05-14T04:10:59.973Z,10.29
2023-05-14T04:13:29.521Z,10.31
2023-05-14T04:15:57.706Z,10.31
2023-05-14T04:18:26.320Z,10.31
2023-05-14T04:20:54.487Z,10.35
2023-05-14T04:23:23.133Z,10.40
2023-05-14T04:25:51.256Z,10.40
2023-05-14T04:28:19.427Z,10.42
2023-05-14T04:30:49.773Z,10.43
2023-05-14T04:33:18.084Z,10.45
2023-05-14T04:35:46.581Z,10.46
2023-05-14T04:38:15.441Z,10.44
2023-05-14T04:40:43.547Z,10.49
2023-05-14T04:43:11.811Z,10.42
2023-05-14T04:45:41.119Z,10.45
2023-05-14T04:48:10.859Z,10.51
2023-05-14T04:50:38.968Z,10.47
2023-05-14T04:53:07.048Z,10.45
2023-05-14T04:55:35.213Z,10.42
2023-05-14T04:58:03.458Z,10.47
2023-05-14T05:00:32.117Z,10.46
2023-05-14T05:03:00.478Z,10.46
2023-05-14T05:05:30.168Z,10.48
2023-05-14T05:07:58.336Z,10.50
2023-05-14T05:10:26.811Z,10.52
2023-05-14T05:12:54.965Z,10.53
2023-05-14T05:15:24.717Z,10.55
2023-05-14T05:17:54.789Z,10.51
2023-05-14T05:20:23.633Z,10.56
2023-05-14T05:22:53.193Z,10.56
2023-05-14T05:25:21.479Z,10.58
2023-05-14T05:27:49.574Z,10.50
2023-05-14T05:30:17.842Z,10.52
2023-05-14T05:32:45.923Z,10.51
2023-05-14T05:35:14.084Z,10.57
2023-05-14T05:37:42.712Z,10.54
2023-05-14T05:40:14.154Z,10.59
2023-05-14T05:42:42.256Z,10.61
2023-05-14T05:45:11.061Z,10.61
2023-05-14T05:47:39.205Z,10.60
2023-05-14T05:50:08.926Z,10.64
2023-05-14T05:52:37.011Z,10.70
2023-05-14T05:55:05.614Z,10.67
2023-05-14T05:57:35.294Z,10.68
2023-05-14T06:00:12.699Z,10.69
2023-05-14T06:02:41.076Z,10.71
2023-05-14T06:05:10.689Z,10.67
2023-05-14T06:07:38.950Z,10.70
2023-05-14T06:10:08.445Z,10.67
2023-05-14T06:12:37.969Z,10.71
2023-05-14T06:15:06.911Z,10.68
2023-05-14T06:17:35.230Z,10.71
2023-05-14T06:20:08.037Z,10.70
2023-05-14T06:22:36.179Z,10.68
2023-05-14T06:25:04.514Z,10.65
2023-05-14T06:27:32.680Z,10.66
2023-05-14T06:30:02.196Z,10.62
2023-05-14T06:32:30.405Z,10.53
2023-05-14T06:34:58.530Z,10.56
2023-05-14T06:37:26.565Z,10.59
2023-05-14T06:39:57.049Z,10.60
2023-05-14T06:42:26.502Z,10.67
2023-05-14T06:44:54.711Z,10.67
2023-05-14T06:47:24.257Z,10.74
2023-05-14T06:49:52.386Z,10.77
2023-05-14T06:52:20.458Z,10.77
2023-05-14T06:54:48.590Z,10.80
2023-05-14T06:57:16.669Z,10.88
2023-05-14T06:59:44.718Z,10.94
2023-05-14T07:02:13.503Z,10.90
2023-05-14T07:04:43.108Z,10.93
2023-05-14T07:07:15.567Z,11.09
2023-05-14T07:09:43.801Z,11.18
2023-05-14T07:12:11.834Z,11.23
2023-05-14T07:14:40.344Z,11.30
2023-05-14T07:17:08.566Z,11.25
2023-05-14T07:19:36.636Z,11.36
2023-05-14T07:22:06.367Z,11.47
2023-05-14T07:24:36.524Z,11.56
2023-05-14T07:27:04.934Z,11.69
2023-05-14T07:29:35.136Z,11.76
2023-05-14T07:32:03.344Z,11.77
2023-05-14T07:34:31.515Z,11.93
2023-05-14T07:36:59.691Z,12.07
2023-05-14T07:39:29.218Z,12.23
2023-05-14T07:41:57.310Z,12.38
2023-05-14T07:44:25.469Z,12.47
2023-05-14T07:46:53.504Z,12.49
2023-05-14T07:49:21.601Z,12.62
2023-05-14T07:51:49.604Z,12.64
2023-05-14T07:54:18.142Z,12.58
2023-05-14T07:56:47.621Z,12.51
2023-05-14T07:59:15.880Z,12.69
2023-05-14T08:01:44.405Z,12.77
2023-05-14T08:04:12.881Z,12.79
2023-05-14T08:06:41.070Z,12.82
2023-05-14T08:09:09.826Z,12.84
2023-05-14T08:11:37.944Z,12.86
2023-05-14T08:14:07.475Z,12.85
2023-05-14T08:16:35.821Z,12.85
2023-05-14T08:19:03.973Z,12.78
2023-05-14T08:21:33.903Z,12.64
2023-05-14T08:24:01.993Z,12.62
2023-05-14T08:26:30.130Z,12.65
2023-05-14T08:28:58.214Z,12.57
2023-05-14T08:31:27.678Z,12.62
2023-05-14T08:33:55.959Z,12.61
2023-05-14T08:36:24.162Z,12.49
2023-05-14T08:38:52.470Z,12.43
2023-05-14T08:41:21.390Z,12.43
2023-05-14T08:44:02.781Z,12.49
2023-05-14T08:46:33.415Z,12.57
2023-05-14T08:49:12.554Z,12.67
2023-05-14T08:51:40.917Z,12.74
2023-05-14T08:54:09.414Z,12.68
2023-05-14T08:56:39.747Z,12.69
2023-05-14T08:59:07.857Z,12.72
2023-05-14T09:01:39.643Z,12.78
2023-05-14T09:04:08.731Z,12.71
2023-05-14T09:06:38.506Z,12.75
2023-05-14T09:09:07.041Z,12.71
2023-05-14T09:11:35.104Z,12.71
2023-05-14T09:14:04.295Z,12.76
2023-05-14T09:16:32.872Z,12.77
2023-05-14T09:19:03.295Z,12.71
2023-05-14T09:21:33.607Z,12.78
2023-05-14T09:24:02.272Z,12.66
2023-05-14T09:26:33.673Z,12.74
2023-05-14T09:29:03.813Z,12.76
2023-05-14T09:31:33.247Z,12.71
2023-05-14T09:34:02.758Z,12.73
2023-05-14T09:36:31.729Z,12.82
2023-05-14T09:38:59.760Z,12.82
2023-05-14T09:41:27.903Z,12.82
2023-05-14T09:43:56.988Z,12.76
2023-05-14T09:46:30.282Z,12.86
2023-05-14T09:48:58.601Z,12.87
2023-05-14T09:51:31.662Z,12.84
2023-05-14T09:54:00.176Z,12.76
2023-05-14T09:56:28.321Z,12.78
2023-05-14T09:58:56.451Z,12.75
2023-05-14T10:01:25.855Z,12.71
2023-05-14T10:03:54.988Z,12.76
2023-05-14T10:06:27.172Z,12.74
2023-05-14T10:08:58.641Z,12.51
2023-05-14T10:11:29.846Z,12.61
2023-05-14T10:14:04.297Z,12.58
2023-05-14T10:16:35.908Z,12.61
2023-05-14T10:19:09.175Z,12.72
2023-05-14T10:21:38.867Z,12.70
2023-05-14T10:24:11.324Z,12.71
2023-05-14T10:26:42.267Z,12.84
2023-05-14T10:29:14.157Z,12.88
2023-05-14T10:31:50.397Z,12.87
2023-05-14T10:34:38.562Z,12.83
2023-05-14T10:37:09.096Z,12.76
2023-05-14T10:39:47.266Z,12.88
2023-05-14T10:42:18.411Z,12.75
2023-05-14T10:44:53.609Z,12.70
2023-05-14T10:47:21.918Z,12.73
2023-05-14T10:49:50.611Z,12.75
2023-05-14T10:52:20.789Z,12.68
2023-05-14T10:54:55.104Z,12.53
2023-05-14T10:57:25.249Z,12.50
2023-05-14T10:59:55.037Z,12.57
2023-05-14T11:02:25.765Z,12.52
2023-05-14T11:04:58.786Z,12.46
2023-05-14T11:07:30.779Z,12.33
2023-05-14T11:10:03.576Z,12.27
2023-05-14T11:12:32.087Z,12.21
2023-05-14T11:15:02.254Z,12.21
2023-05-14T11:17:31.425Z,12.21
2023-05-14T11:20:01.281Z,12.16
2023-05-14T11:22:29.652Z,12.21
2023-05-14T11:24:57.773Z,12.20
2023-05-14T11:27:27.609Z,12.22
2023-05-14T11:29:56.252Z,12.24
2023-05-14T11:32:24.451Z,12.30
2023-05-14T11:34:52.688Z,12.25
2023-05-14T11:37:21.214Z,12.18
2023-05-14T11:39:50.904Z,12.20
2023-05-14T11:42:19.787Z,12.29
2023-05-14T11:44:51.937Z,12.28
2023-05-14T11:47:22.104Z,12.18
2023-05-14T11:49:50.785Z,12.24
2023-05-14T11:52:21.996Z,12.23
2023-05-14T11:54:51.062Z,12.21
2023-05-14T11:57:21.624Z,12.20
2023-05-14T11:59:57.944Z,12.19
2023-05-14T12:02:29.227Z,12.13
2023-05-14T12:04:57.584Z,12.09
2023-05-14T12:07:30.094Z,12.10
2023-05-14T12:10:02.946Z,11.99
2023-05-14T12:12:36.474Z,11.97
2023-05-14T12:15:12.672Z,11.99
2023-05-14T12:17:41.110Z,11.96
2023-05-14T12:20:12.555Z,11.95
2023-05-14T12:22:42.784Z,11.95
2023-05-14T12:25:14.477Z,11.90
2023-05-14T12:27:45.522Z,11.95
2023-05-14T12:32:46.810Z,11.83
2023-05-14T12:35:15.008Z,11.81
2023-05-14T12:37:46.124Z,11.71
2023-05-14T12:40:17.249Z,11.65
2023-05-14T12:42:45.316Z,11.62
2023-05-14T12:45:15.077Z,11.61
2023-05-14T12:47:43.255Z,11.57
2023-05-14T12:50:12.001Z,11.58
2023-05-14T12:52:40.235Z,11.47
2023-05-14T12:55:09.777Z,11.47
2023-05-14T12:57:39.300Z,11.43
2023-05-14T13:00:13.031Z,11.43
2023-05-14T13:02:44.030Z,11.41
2023-05-14T13:05:12.955Z,11.41
2023-05-14T13:07:41.339Z,11.29
2023-05-14T13:10:10.507Z,11.30
2023-05-14T13:12:38.921Z,11.18
2023-05-14T13:15:08.079Z,11.18
2023-05-14T13:17:37.023Z,11.21
2023-05-14T13:20:07.743Z,11.23
2023-05-14T13:22:36.274Z,11.21
2023-05-14T13:25:05.046Z,11.18
2023-05-14T13:27:33.838Z,11.17
2023-05-14T13:30:01.883Z,11.19
2023-05-14T13:32:30.019Z,11.17
2023-05-14T13:34:58.095Z,11.17
2023-05-14T13:37:27.667Z,11.16
2023-05-14T13:39:55.844Z,11.19
2023-05-14T13:42:23.998Z,11.22
2023-05-14T13:44:52.270Z,11.21
2023-05-14T13:47:20.527Z,11.20
2023-05-14T13:49:48.690Z,11.21
2023-05-14T13:52:16.864Z,11.22
2023-05-14T13:54:46.573Z,11.17
2023-05-14T13:57:14.705Z,11.21
2023-05-14T13:59:43.052Z,11.22
2023-05-14T14:02:11.240Z,11.26
2023-05-14T14:04:39.550Z,11.26
2023-05-14T14:07:08.118Z,11.23
2023-05-14T14:09:37.037Z,11.27
2023-05-14T14:12:07.457Z,11.27
2023-05-14T14:14:35.676Z,11.31
2023-05-14T14:17:03.774Z,11.32
2023-05-14T14:19:31.855Z,11.29
2023-05-14T14:22:00.132Z,11.26
2023-05-14T14:24:28.267Z,11.35
2023-05-14T14:26:56.367Z,11.32
2023-05-14T14:29:25.882Z,11.34
2023-05-14T14:31:53.994Z,11.33
2023-05-14T14:34:22.148Z,11.35
2023-05-14T14:36:50.283Z,11.32
2023-05-14T14:39:18.391Z,11.31
2023-05-14T14:41:47.740Z,11.32
2023-05-14T14:44:15.933Z,11.28
2023-05-14T14:46:45.361Z,11.24
2023-05-14T14:49:13.406Z,11.27
2023-05-14T14:51:41.970Z,11.30
2023-05-14T14:54:10.037Z,11.27
2023-05-14T14:56:38.151Z,11.20
2023-05-14T14:59:06.596Z,11.21
2023-05-14T15:01:34.805Z,11.09
2023-05-14T15:04:04.520Z,11.00
2023-05-14T15:06:32.612Z,10.89
2023-05-14T15:09:00.879Z,10.85
2023-05-14T15:11:29.740Z,10.74
2023-05-14T15:13:57.837Z,10.71
2023-05-14T15:16:25.945Z,10.70
2023-05-14T15:18:54.268Z,10.68
2023-05-14T15:21:23.882Z,10.66
2023-05-14T15:23:51.908Z,10.66
2023-05-14T15:26:19.946Z,10.65
2023-05-14T15:28:48.015Z,10.63
2023-05-14T15:31:16.134Z,10.65
2023-05-14T15:33:44.164Z,10.60
2023-05-14T15:36:12.835Z,10.65
2023-05-14T15:38:42.457Z,10.66
2023-05-14T15:41:10.618Z,10.66
2023-05-14T15:43:38.691Z,10.63
2023-05-14T15:46:06.875Z,10.61
2023-05-14T15:48:36.436Z,10.59
2023-05-14T15:51:04.648Z,10.54
2023-05-14T15:53:32.712Z,10.55
2023-05-14T15:56:02.270Z,10.48
2023-05-14T15:58:30.253Z,10.53
2023-05-14T16:00:58.390Z,10.52
2023-05-14T16:03:26.614Z,10.48
2023-05-14T16:05:54.976Z,10.52
2023-05-14T16:08:23.067Z,10.47
2023-05-14T16:10:51.215Z,10.55
2023-05-14T16:13:21.060Z,10.52
2023-05-14T16:15:49.607Z,10.53
2023-05-14T16:18:17.704Z,10.56
2023-05-14T16:20:45.836Z,10.51
2023-05-14T16:23:13.910Z,10.56
2023-05-14T16:25:42.035Z,10.55
2023-05-14T16:28:10.185Z,10.51
2023-05-14T16:30:42.059Z,10.59
2023-05-14T16:33:10.194Z,10.56
2023-05-14T16:35:39.474Z,10.51
2023-05-14T16:38:07.889Z,10.55
2023-05-14T16:40:36.045Z,10.57
2023-05-14T16:43:04.491Z,10.44
2023-05-14T16:45:34.929Z,10.59
2023-05-14T16:48:04.517Z,10.50
2023-05-14T16:50:33.218Z,10.57
2023-05-14T16:53:01.318Z,10.58
2023-05-14T16:55:29.360Z,10.61
2023-05-14T16:57:57.529Z,10.61
2023-05-14T17:00:26.108Z,10.65
2023-05-14T17:02:54.490Z,10.62
2023-05-14T17:05:24.972Z,10.59
2023-05-14T17:07:53.460Z,10.59
2023-05-14T17:10:21.683Z,10.63
2023-05-14T17:12:50.109Z,10.64
2023-05-14T17:15:18.600Z,10.65
2023-05-14T17:17:47.469Z,10.67
2023-05-14T17:20:16.917Z,10.66
2023-05-14T17:22:46.768Z,10.64
2023-05-14T17:25:14.829Z,10.62
2023-05-14T17:27:42.981Z,10.60
2023-05-14T17:30:11.865Z,10.65
2023-05-14T17:32:39.991Z,10.63
2023-05-14T17:35:09.720Z,10.62
2023-05-14T17:37:37.854Z,10.66
2023-05-14T17:40:08.613Z,10.65
2023-05-14T17:42:36.819Z,10.68
2023-05-14T17:45:05.380Z,10.66
2023-05-14T17:47:33.640Z,10.69
2023-05-14T17:50:02.095Z,10.72
2023-05-14T17:52:30.221Z,10.71
2023-05-14T17:54:58.392Z,10.73
2023-05-14T17:57:28.026Z,10.74
2023-05-14T17:59:56.723Z,10.74
2023-05-14T18:02:25.169Z,10.75
2023-05-14T18:04:55.167Z,10.78
2023-05-14T18:07:24.239Z,10.77
2023-05-14T18:09:52.783Z,10.79
2023-05-14T18:12:21.232Z,10.78
2023-05-14T18:14:51.163Z,10.81
2023-05-14T18:17:19.993Z,10.80
2023-05-14T18:19:48.446Z,10.81
2023-05-14T18:22:16.983Z,10.77
2023-05-14T18:24:47.967Z,10.78
2023-05-14T18:27:16.068Z,10.82
2023-05-14T18:29:44.941Z,10.77
2023-05-14T18:32:14.908Z,10.78
2023-05-14T18:34:43.056Z,10.82
2023-05-14T18:37:11.253Z,10.84
2023-05-14T18:39:40.325Z,10.83
2023-05-14T18:42:09.623Z,10.86
2023-05-14T18:44:44.378Z,10.83
2023-05-14T18:47:12.869Z,10.83
2023-05-14T18:49:42.823Z,10.85
2023-05-14T18:52:11.361Z,10.83
2023-05-14T18:54:40.660Z,10.84
2023-05-14T18:57:09.923Z,10.86
2023-05-14T18:59:38.347Z,10.92
2023-05-14T19:02:06.972Z,10.93
2023-05-14T19:04:47.777Z,10.91
2023-05-14T19:07:20.745Z,10.92
2023-05-14T19:09:49.216Z,10.97
2023-05-14T19:12:22.116Z,10.93
2023-05-14T19:14:50.562Z,10.92
2023-05-14T19:17:20.475Z,10.93
2023-05-14T19:19:48.876Z,10.92
2023-05-14T19:22:17.361Z,10.87
2023-05-14T19:24:46.834Z,10.91
2023-05-14T19:27:16.726Z,10.91
2023-05-14T19:29:45.678Z,10.94
2023-05-14T19:32:16.514Z,10.92
2023-05-14T19:34:45.061Z,10.93
2023-05-14T19:37:13.444Z,10.96
2023-05-14T19:39:41.601Z,10.93
2023-05-14T19:42:11.457Z,10.96
2023-05-14T19:44:39.933Z,10.94
2023-05-14T19:47:09.529Z,10.94
2023-05-14T19:49:37.833Z,10.95
2023-05-14T19:52:06.799Z,10.99
2023-05-14T19:54:37.532Z,11.02
2023-05-14T19:57:09.708Z,10.98
2023-05-14T19:59:40.102Z,11.03
2023-05-14T20:02:09.626Z,11.04
2023-05-14T20:04:40.102Z,11.01
2023-05-14T20:07:09.370Z,11.09
2023-05-14T20:09:40.831Z,11.09
2023-05-14T20:12:10.520Z,11.07
2023-05-14T20:14:41.173Z,11.09
2023-05-14T20:17:09.347Z,11.07
2023-05-14T20:19:37.628Z,11.07
2023-05-14T20:22:06.097Z,11.12
2023-05-14T20:24:34.158Z,11.10
2023-05-14T20:27:02.333Z,11.10
2023-05-14T20:29:30.488Z,11.15
2023-05-14T20:32:00.273Z,11.13
2023-05-14T20:34:28.563Z,11.12
2023-05-14T20:36:57.646Z,11.09
2023-05-14T20:39:25.881Z,11.10
2023-05-14T20:41:53.900Z,11.03
2023-05-14T20:44:21.903Z,11.07
2023-05-14T20:46:50.034Z,11.07
2023-05-14T20:49:19.610Z,11.03
2023-05-14T20:51:47.668Z,11.04
2023-05-14T20:54:15.791Z,11.06
2023-05-14T20:56:43.945Z,11.04
2023-05-14T20:59:12.305Z,11.01
2023-05-14T21:01:43.074Z,10.96
2023-05-14T21:04:11.992Z,10.99
2023-05-14T21:06:42.066Z,10.97
2023-05-14T21:09:10.900Z,10.98
2023-05-14T21:11:39.257Z,10.92
2023-05-14T21:14:07.322Z,11.00
2023-05-14T21:16:35.483Z,10.99
2023-05-14T21:19:03.638Z,10.99
2023-05-14T21:21:31.745Z,10.98
2023-05-14T21:24:01.311Z,10.99
2023-05-14T21:26:33.459Z,11.02
2023-05-14T21:29:02.256Z,11.02
2023-05-14T21:31:30.784Z,10.99
2023-05-14T21:33:59.163Z,11.03
2023-05-14T21:36:27.306Z,11.07
2023-05-14T21:38:55.420Z,11.06
2023-05-14T21:41:24.906Z,11.06
2023-05-14T21:43:53.031Z,11.06
2023-05-14T21:46:21.233Z,11.03
2023-05-14T21:48:49.390Z,11.06
2023-05-14T21:51:17.821Z,11.07
2023-05-14T21:53:46.382Z,11.09
2023-05-14T21:56:14.515Z,11.10
2023-05-14T21:58:44.001Z,11.10
2023-05-14T22:01:14.262Z,11.09
2023-05-14T22:03:42.574Z,11.09
2023-05-14T22:06:10.770Z,11.08
2023-05-14T22:08:38.848Z,11.13
2023-05-14T22:11:06.925Z,11.14
2023-05-14T22:13:37.700Z,11.14
2023-05-14T22:16:12.781Z,11.13
2023-05-14T22:18:41.777Z,11.17
2023-05-14T22:21:09.873Z,11.18
2023-05-14T22:23:37.984Z,11.18
2023-05-14T22:26:06.318Z,11.17
2023-05-14T22:28:34.402Z,11.14
2023-05-14T22:31:02.523Z,11.12
2023-05-14T22:33:33.287Z,11.12
2023-05-14T22:36:01.483Z,11.18
2023-05-14T22:38:29.575Z,11.17
2023-05-14T22:40:57.635Z,11.17
2023-05-14T22:43:25.885Z,11.15
2023-05-14T22:45:54.152Z,11.16
2023-05-14T22:48:22.516Z,11.17
2023-05-14T22:50:52.018Z,11.18
2023-05-14T22:53:20.097Z,11.19
2023-05-14T22:55:48.366Z,11.16
2023-05-14T22:58:16.384Z,11.21
2023-05-14T23:00:44.489Z,11.20
2023-05-14T23:03:12.514Z,11.18
2023-05-14T23:05:40.644Z,11.21
2023-05-14T23:08:10.117Z,11.20
2023-05-14T23:10:38.218Z,11.18
2023-05-14T23:13:06.444Z,11.18
2023-05-14T23:15:34.603Z,11.19
2023-05-14T23:18:02.830Z,11.18
2023-05-14T23:20:31.104Z,11.18
2023-05-14T23:22:59.207Z,11.16
2023-05-14T23:25:28.718Z,11.17
2023-05-14T23:27:56.928Z,11.13
2023-05-14T23:30:25.114Z,11.15
2023-05-14T23:32:53.210Z,11.13
2023-05-14T23:35:21.336Z,11.15
2023-05-14T23:37:51.018Z,11.13
2023-05-14T23:40:19.459Z,11.16
2023-05-14T23:42:48.942Z,11.19
2023-05-14T23:45:17.126Z,11.19
2023-05-14T23:47:45.358Z,11.17
2023-05-14T23:50:13.474Z,11.16
2023-05-14T23:52:41.720Z,11.13
2023-05-14T23:55:10.694Z,11.15
2023-05-14T23:57:38.880Z,11.14
